罗盘
风向 的 风向 的 风向 到 风向 350° Aérodrome de Figeac - Livernon 11/29
风: 6 kt, 2 beaufort

3 kt

5 kt
改变
0 1.000 2.000 3.000 4.000 5.000
CAVOK
METAR LFLW 061900Z AUTO 35006KT 320V030 CAVOK 21/11 Q1023

METAR Aérodrome de Figeac - Livernon

该字段位于法国中。 该机场有一条跑道: 11/29.

这份报告是针对2022年7月6日 9:00 下午, 当地时间在Aurillac Airport进行的。

机场观察

风向为350°,速度为6 kt。 风向在320°和030°之间变化。

天气为CAVOK。这意味着在5.000 ft或MSA(最低安全高度)以下(以较高者为准)以下没有云。这也意味着没有观测到积雨云或高耸的积云,可见度为6¼ mi 或者更多或更高。此外,不会有雾,降雨或其他重要天气。

温度和风寒是70 °F。 露点为52 °F,相对湿度为53%。 海平面上的气压为30,21 inHg (QNH)。

白天

今天,太阳从6:14 上午升起,在9:40 下午降落。 这适用于Aérodrome de Figeac - Livernon,世界夏令时可能有所不同。 当地时间与世界标准时间之间的时差为+2 小时。 夏令时目前正在进行中。

公司介绍

在这个机场,你可以找到飞行俱乐部。 本场上唯一已知的公司是Aéroclub de Figeac Livernon。

体会

到Vliegles.nl去找飞行课程,跳伞和其他飞行体验。 浏览页面,了解Aérodrome de Figeac - Livernon附近所有可用的活动。 你也可以使用搜索功能来寻找你所在地附近的特定飞行课程、跳伞或其他飞行体验。

您会帮助我们保持Metar-Taf.com正常运行吗?
您的贡献有助于网站的进一步开发并支付费用。

没有更多广告

您是捐款5美元还是更多?然后,我们将永远不会再向您展示广告,这是我们永恒的感谢!
捐赠前先登录

跑道

Id 标题 侧风 逆风 侧风 %
11/29 111°-291° 5 kt 3 kt 86 %

逆风成分最大的方向会被突出显示,并用于横风计算。 这并不一定意味着这个方向在使用。

温度 & 天气

温度 70 °F
露点 52 °F
相对湿度 53%
Kp-index 0  

公司介绍

新增公司

下载我们的应用程序

在您的手机和平板电脑上轻松访问所有航空天气。
有许多网站上没有的功能,如离线支持和个人机场列表。

Studio Eveline

Benalmádena
España

我们和第三方通过cookies跟踪您在我们网站上的上网行为。如果您继续,我们认为您同意我们的cookie政策。 了解更多